createdAt,value
2019-04-11T00:00:33.355Z,14.50
2019-04-11T00:01:39.421Z,14.70
2019-04-11T00:02:34.350Z,14.50
2019-04-11T00:03:33.530Z,14.50
2019-04-11T00:04:34.386Z,14.50
2019-04-11T00:05:33.311Z,14.30
2019-04-11T00:06:33.815Z,14.70
2019-04-11T00:07:33.286Z,14.10
2019-04-11T00:08:34.182Z,14.40
2019-04-11T00:09:34.437Z,13.50
2019-04-11T00:10:33.414Z,14.50
2019-04-11T00:11:33.597Z,14.60
2019-04-11T00:12:33.221Z,14.10
2019-04-11T00:13:35.222Z,14.50
2019-04-11T00:14:33.193Z,14.60
2019-04-11T00:15:33.187Z,15.10
2019-04-11T00:16:33.208Z,15.10
2019-04-11T00:17:34.186Z,15.50
2019-04-11T00:18:33.177Z,13.70
2019-04-11T00:19:33.639Z,14.70
2019-04-11T00:20:33.865Z,14.40
2019-04-11T00:21:33.115Z,14.80
2019-04-11T00:22:33.343Z,14.20
2019-04-11T00:23:34.141Z,14.60
2019-04-11T00:24:33.082Z,14.80
2019-04-11T00:25:33.763Z,14.80
2019-04-11T00:26:33.061Z,14.50
2019-04-11T00:27:33.054Z,15.20
2019-04-11T00:28:34.028Z,14.10
2019-04-11T00:29:33.029Z,14.50
2019-04-11T00:30:33.017Z,14.10
2019-04-11T00:31:33.014Z,14.20
2019-04-11T00:32:33.765Z,14.40
2019-04-11T00:33:33.980Z,15.30
2019-04-11T00:34:33.171Z,14.70
2019-04-11T00:35:33.595Z,14.10
2019-04-11T00:36:32.954Z,13.70
2019-04-11T00:37:32.948Z,15.30
2019-04-11T00:38:34.115Z,15.10
2019-04-11T00:39:32.918Z,14.60
2019-04-11T00:40:33.271Z,14.80
2019-04-11T00:41:32.897Z,13.60
2019-04-11T00:42:32.884Z,13.70
2019-04-11T00:43:37.640Z,13.40
2019-04-11T00:44:34.743Z,14.00
2019-04-11T00:45:33.807Z,14.40
2019-04-11T00:46:32.843Z,13.20
2019-04-11T00:47:33.164Z,13.70
2019-04-11T00:48:33.496Z,13.90
2019-04-11T00:49:32.801Z,13.60
2019-04-11T00:50:32.811Z,13.70
2019-04-11T00:51:33.856Z,13.60
2019-04-11T00:52:33.637Z,13.80
2019-04-11T00:53:32.782Z,14.20
2019-04-11T00:54:33.171Z,13.70
2019-04-11T00:55:32.732Z,14.00
2019-04-11T00:56:32.729Z,13.70
2019-04-11T00:57:32.800Z,13.90
2019-04-11T00:58:33.858Z,14.40
2019-04-11T00:59:32.713Z,12.90
2019-04-11T01:00:33.352Z,14.40
2019-04-11T01:01:33.680Z,13.80
2019-04-11T01:02:33.653Z,14.00
2019-04-11T01:03:33.823Z,13.70
2019-04-11T01:04:32.786Z,15.00
2019-04-11T01:05:33.815Z,13.50
2019-04-11T01:06:32.609Z,13.60
2019-04-11T01:07:33.193Z,14.20
2019-04-11T01:08:32.588Z,14.10
2019-04-11T01:09:32.727Z,13.90
2019-04-11T01:10:32.571Z,13.40
2019-04-11T01:11:32.560Z,14.00
2019-04-11T01:12:32.547Z,13.30
2019-04-11T01:13:41.719Z,13.70
2019-04-11T01:14:34.167Z,13.90
2019-04-11T01:15:32.510Z,13.10
2019-04-11T01:16:32.649Z,13.10
2019-04-11T01:17:33.589Z,13.20
2019-04-11T01:18:32.479Z,13.70
2019-04-11T01:19:33.004Z,13.80
2019-04-11T01:20:32.496Z,13.10
2019-04-11T01:21:32.799Z,13.70
2019-04-11T01:22:32.432Z,13.70
2019-04-11T01:23:33.229Z,13.70
2019-04-11T01:24:33.583Z,13.80
2019-04-11T01:25:32.670Z,13.70
2019-04-11T01:26:32.989Z,14.10
2019-04-11T01:27:32.376Z,14.10
2019-04-11T01:28:32.364Z,13.70
2019-04-11T01:29:33.483Z,13.90
2019-04-11T01:30:33.300Z,13.10
2019-04-11T01:31:32.330Z,13.30
2019-04-11T01:32:32.588Z,13.60
2019-04-11T01:33:32.307Z,14.70
2019-04-11T01:34:32.920Z,13.80
2019-04-11T01:35:33.213Z,13.70
2019-04-11T01:36:33.218Z,13.30
2019-04-11T01:37:33.450Z,13.70
2019-04-11T01:38:32.499Z,13.50
2019-04-11T01:39:32.779Z,13.60
2019-04-11T01:40:32.252Z,13.30
2019-04-11T01:41:32.217Z,13.50
2019-04-11T01:42:33.353Z,12.90
2019-04-11T01:43:32.492Z,13.30
2019-04-11T01:44:32.495Z,13.00
2019-04-11T01:45:32.210Z,13.00
2019-04-11T01:46:32.161Z,13.70
2019-04-11T01:47:32.972Z,12.90
2019-04-11T01:48:33.285Z,14.20
2019-04-11T01:49:32.349Z,14.00
2019-04-11T01:50:32.807Z,13.20
2019-04-11T01:51:32.123Z,13.00
2019-04-11T01:52:32.096Z,13.70
2019-04-11T01:53:33.094Z,13.20
2019-04-11T01:54:32.198Z,14.00
2019-04-11T01:55:32.574Z,13.50
2019-04-11T01:56:32.068Z,12.80
2019-04-11T01:57:32.047Z,12.70
2019-04-11T01:58:32.989Z,13.30
2019-04-11T01:59:32.290Z,13.10
2019-04-11T02:00:32.302Z,13.40
2019-04-11T02:01:32.703Z,12.60
2019-04-11T02:02:32.661Z,13.00
2019-04-11T02:03:32.993Z,13.20
2019-04-11T02:04:32.121Z,12.90
2019-04-11T02:05:32.823Z,13.80
2019-04-11T02:06:32.063Z,13.10
2019-04-11T02:07:31.929Z,13.50
2019-04-11T02:08:31.920Z,13.50
2019-04-11T02:09:32.430Z,13.00
2019-04-11T02:10:32.820Z,12.60
2019-04-11T02:11:31.921Z,12.80
2019-04-11T02:12:32.024Z,13.00
2019-04-11T02:13:32.182Z,12.80
2019-04-11T02:14:31.879Z,13.20
2019-04-11T02:15:32.427Z,13.20
2019-04-11T02:16:32.750Z,13.00
2019-04-11T02:17:32.853Z,13.30
2019-04-11T02:18:31.812Z,13.20
2019-04-11T02:19:32.190Z,12.40
2019-04-11T02:20:31.817Z,13.30
2019-04-11T02:21:31.794Z,13.80
2019-04-11T02:22:32.747Z,13.50
2019-04-11T02:23:32.013Z,13.10
2019-04-11T02:24:32.095Z,13.00
2019-04-11T02:25:32.333Z,12.60
2019-04-11T02:26:31.729Z,12.90
2019-04-11T02:27:32.699Z,12.50
2019-04-11T02:28:32.788Z,12.50
2019-04-11T02:29:31.700Z,13.30
2019-04-11T02:30:31.679Z,12.60
2019-04-11T02:31:32.656Z,12.60
2019-04-11T02:32:32.008Z,12.90
2019-04-11T02:33:32.917Z,12.40
2019-04-11T02:34:31.692Z,12.10
2019-04-11T02:35:31.730Z,13.10
2019-04-11T02:36:33.699Z,12.40
2019-04-11T02:37:33.725Z,13.20
2019-04-11T02:38:32.693Z,13.00
2019-04-11T02:39:34.813Z,13.20
2019-04-11T02:40:32.708Z,12.80
2019-04-11T02:41:33.492Z,12.80
2019-04-11T02:42:32.888Z,13.10
2019-04-11T02:43:32.020Z,11.90
2019-04-11T02:44:49.261Z,12.80
2019-04-11T02:45:45.208Z,12.90
2019-04-11T02:46:42.448Z,13.20
2019-04-11T02:47:34.997Z,12.80
2019-04-11T02:48:33.036Z,12.80
2019-04-11T02:49:32.926Z,12.30
2019-04-11T02:50:32.174Z,12.80
2019-04-11T02:51:31.484Z,13.00
2019-04-11T02:52:31.448Z,12.60
2019-04-11T02:53:32.674Z,12.90
2019-04-11T02:54:33.461Z,12.60
2019-04-11T02:55:31.713Z,12.10
2019-04-11T02:56:33.433Z,12.40
2019-04-11T02:57:32.291Z,12.40
2019-04-11T02:58:31.886Z,12.90
2019-04-11T02:59:31.401Z,13.50
2019-04-11T03:00:33.094Z,12.10
2019-04-11T03:01:31.959Z,12.10
2019-04-11T03:02:32.638Z,12.90
2019-04-11T03:03:32.007Z,11.90
2019-04-11T03:04:31.764Z,12.10
2019-04-11T03:05:34.448Z,12.60
2019-04-11T03:06:31.283Z,11.90
2019-04-11T03:07:32.016Z,12.10
2019-04-11T03:08:34.212Z,12.00
2019-04-11T03:09:31.744Z,12.50
2019-04-11T03:10:31.886Z,12.10
2019-04-11T03:11:32.516Z,11.90
2019-04-11T03:12:31.950Z,12.60
2019-04-11T03:13:33.176Z,12.30
2019-04-11T03:14:46.152Z,11.80
2019-04-11T03:15:48.895Z,12.60
2019-04-11T03:16:42.964Z,11.90
2019-04-11T03:17:36.774Z,12.50
2019-04-11T03:18:52.943Z,12.00
2019-04-11T03:19:43.990Z,12.30
2019-04-11T03:20:39.261Z,12.60
2019-04-11T03:21:36.687Z,11.90
2019-04-11T03:22:32.364Z,12.60
2019-04-11T03:23:31.299Z,12.20
2019-04-11T03:24:33.276Z,11.70
2019-04-11T03:25:32.542Z,12.00
2019-04-11T03:26:31.225Z,12.50
2019-04-11T03:27:32.549Z,12.00
2019-04-11T03:28:32.004Z,11.90
2019-04-11T03:29:33.157Z,11.80
2019-04-11T03:30:51.994Z,12.00
2019-04-11T03:32:13.236Z,12.20
2019-04-11T03:33:18.136Z,12.20
2019-04-11T03:35:20.911Z,12.00
2019-04-11T03:36:28.621Z,12.20
2019-04-11T03:37:53.556Z,12.20
2019-04-11T03:38:55.225Z,11.60
2019-04-11T03:39:52.845Z,11.60
2019-04-11T03:40:50.123Z,11.70
2019-04-11T03:41:50.469Z,12.00
2019-04-11T03:42:44.840Z,11.60
2019-04-11T03:43:41.806Z,11.80
2019-04-11T03:44:38.335Z,11.80
2019-04-11T03:45:49.758Z,12.20
2019-04-11T03:46:48.136Z,12.10
2019-04-11T03:47:44.697Z,12.10
2019-04-11T03:48:45.354Z,11.50
2019-04-11T03:49:43.234Z,11.10
2019-04-11T03:50:32.828Z,11.90
2019-04-11T03:51:30.847Z,11.50
2019-04-11T03:52:32.618Z,11.50
2019-04-11T03:53:32.513Z,11.20
2019-04-11T03:54:31.842Z,11.40
2019-04-11T03:55:32.363Z,11.80
2019-04-11T03:56:30.741Z,11.80
2019-04-11T03:57:31.833Z,11.20
2019-04-11T03:58:31.138Z,11.10
2019-04-11T03:59:31.473Z,11.40
2019-04-11T04:00:35.998Z,11.70
2019-04-11T04:01:32.071Z,11.40
2019-04-11T04:02:30.875Z,11.80
2019-04-11T04:03:31.138Z,11.80
2019-04-11T04:04:30.689Z,11.20
2019-04-11T04:05:34.036Z,11.50
2019-04-11T04:06:33.071Z,11.20
2019-04-11T04:07:32.014Z,11.50
2019-04-11T04:08:31.464Z,11.10
2019-04-11T04:09:30.623Z,11.30
2019-04-11T04:10:31.772Z,13.10
2019-04-11T04:11:32.617Z,12.30
2019-04-11T04:12:31.426Z,11.10
2019-04-11T04:13:31.975Z,11.00
2019-04-11T04:14:30.554Z,11.20
2019-04-11T04:15:42.095Z,11.30
2019-04-11T04:16:39.842Z,10.70
2019-04-11T04:17:32.964Z,11.00
2019-04-11T04:18:31.770Z,10.80
2019-04-11T04:19:32.624Z,11.30
2019-04-11T04:20:30.608Z,10.80
2019-04-11T04:21:31.162Z,10.90
2019-04-11T04:22:31.561Z,10.90
2019-04-11T04:23:31.483Z,10.80
2019-04-11T04:24:34.861Z,11.20
2019-04-11T04:25:32.518Z,11.60
2019-04-11T04:26:31.312Z,10.80
2019-04-11T04:27:31.080Z,10.90
2019-04-11T04:28:31.757Z,10.30
2019-04-11T04:29:32.088Z,11.40
2019-04-11T04:30:30.420Z,10.30
2019-04-11T04:31:30.732Z,11.20
2019-04-11T04:32:31.976Z,10.70
2019-04-11T04:33:31.373Z,10.80
2019-04-11T04:34:31.634Z,10.60
2019-04-11T04:35:31.703Z,10.50
2019-04-11T04:36:30.974Z,10.80
2019-04-11T04:37:31.912Z,10.80
2019-04-11T04:38:31.600Z,10.60
2019-04-11T04:39:31.340Z,11.30
2019-04-11T04:40:46.311Z,11.00
2019-04-11T04:41:39.350Z,11.00
2019-04-11T04:42:36.593Z,10.90
2019-04-11T04:43:31.757Z,11.50
2019-04-11T04:44:31.606Z,10.20
2019-04-11T04:45:49.544Z,10.50
2019-04-11T04:46:50.218Z,10.60
2019-04-11T04:47:39.509Z,10.40
2019-04-11T04:48:32.360Z,10.20
2019-04-11T04:49:32.216Z,10.00
2019-04-11T04:50:30.926Z,10.20
2019-04-11T04:51:31.187Z,10.40
2019-04-11T04:52:31.909Z,9.90
2019-04-11T04:53:30.996Z,10.20
2019-04-11T04:54:30.813Z,10.50
2019-04-11T04:55:30.399Z,10.40
2019-04-11T04:56:32.200Z,10.60
2019-04-11T04:57:31.770Z,10.00
2019-04-11T04:58:31.714Z,10.70
2019-04-11T04:59:30.118Z,10.60
2019-04-11T05:00:32.019Z,10.50
2019-04-11T05:01:31.593Z,9.80
2019-04-11T05:02:30.953Z,10.30
2019-04-11T05:03:31.821Z,10.20
2019-04-11T05:04:31.683Z,10.50
2019-04-11T05:05:31.031Z,10.60
2019-04-11T05:06:30.003Z,10.20
2019-04-11T05:07:34.152Z,10.20
2019-04-11T05:08:32.402Z,10.40
2019-04-11T05:09:30.001Z,10.10
2019-04-11T05:10:30.642Z,9.90
2019-04-11T05:11:30.526Z,9.70
2019-04-11T05:12:30.259Z,9.60
2019-04-11T05:13:30.240Z,9.60
2019-04-11T05:14:31.466Z,10.30
2019-04-11T05:15:30.135Z,9.90
2019-04-11T05:16:30.018Z,10.30
2019-04-11T05:17:29.935Z,9.50
2019-04-11T05:18:29.948Z,9.80
2019-04-11T05:19:30.023Z,9.60
2019-04-11T05:20:30.190Z,10.10
2019-04-11T05:21:29.842Z,10.10
2019-04-11T05:22:30.986Z,9.80
2019-04-11T05:23:29.878Z,9.50
2019-04-11T05:24:30.498Z,9.90
2019-04-11T05:25:30.621Z,9.50
2019-04-11T05:26:29.769Z,9.90
2019-04-11T05:27:29.786Z,10.40
2019-04-11T05:28:29.861Z,9.50
2019-04-11T05:29:29.736Z,9.40
2019-04-11T05:30:29.731Z,9.70
2019-04-11T05:31:30.323Z,10.50
2019-04-11T05:32:29.735Z,10.00
2019-04-11T05:33:29.706Z,9.60
2019-04-11T05:34:29.765Z,9.70
2019-04-11T05:35:29.954Z,9.30
2019-04-11T05:36:30.424Z,9.80
2019-04-11T05:37:29.650Z,9.00
2019-04-11T05:38:29.653Z,9.50
2019-04-11T05:39:29.634Z,9.60
2019-04-11T05:40:31.060Z,9.20
2019-04-11T05:41:29.611Z,9.90
2019-04-11T05:42:29.623Z,9.70
2019-04-11T05:43:34.701Z,9.50
2019-04-11T05:44:30.619Z,9.50
2019-04-11T05:45:29.602Z,9.30
2019-04-11T05:46:35.488Z,9.90
2019-04-11T05:47:31.621Z,9.30
2019-04-11T05:48:30.516Z,9.10
2019-04-11T05:49:36.159Z,10.10
2019-04-11T05:50:30.510Z,9.40
2019-04-11T05:51:37.018Z,9.40
2019-04-11T05:52:32.229Z,9.50
2019-04-11T05:53:32.744Z,9.40
2019-04-11T05:54:29.467Z,9.10
2019-04-11T05:55:30.158Z,9.20
2019-04-11T05:56:29.930Z,9.00
2019-04-11T05:57:35.185Z,8.80
2019-04-11T05:58:30.439Z,9.60
2019-04-11T05:59:30.604Z,9.20
2019-04-11T06:00:30.462Z,9.90
2019-04-11T06:01:30.739Z,9.30
2019-04-11T06:02:29.400Z,10.20
2019-04-11T06:03:30.242Z,9.10
2019-04-11T06:04:30.239Z,9.50
2019-04-11T06:05:32.396Z,9.00
2019-04-11T06:06:34.304Z,9.30
2019-04-11T06:07:30.329Z,9.80
2019-04-11T06:08:30.757Z,8.50
2019-04-11T06:09:33.759Z,9.70
2019-04-11T06:10:30.381Z,9.50
2019-04-11T06:11:29.280Z,8.90
2019-04-11T06:12:29.617Z,9.30
2019-04-11T06:13:29.273Z,9.00
2019-04-11T06:14:29.281Z,9.50
2019-04-11T06:15:29.238Z,9.50
2019-04-11T06:16:37.036Z,9.40
2019-04-11T06:17:30.213Z,9.50
2019-04-11T06:18:33.176Z,9.50
2019-04-11T06:19:30.536Z,9.10
2019-04-11T06:20:29.266Z,9.20
2019-04-11T06:21:29.189Z,8.90
2019-04-11T06:22:29.743Z,9.10
2019-04-11T06:23:29.614Z,8.80
2019-04-11T06:24:29.133Z,9.60
2019-04-11T06:25:30.965Z,9.40
2019-04-11T06:26:30.325Z,9.20
2019-04-11T06:27:29.102Z,9.50
2019-04-11T06:28:29.118Z,9.40
2019-04-11T06:29:29.927Z,9.20
2019-04-11T06:30:29.096Z,8.80
2019-04-11T06:31:29.823Z,9.10
2019-04-11T06:32:29.922Z,8.90
2019-04-11T06:33:29.042Z,9.10
2019-04-11T06:34:29.028Z,9.00
2019-04-11T06:35:30.235Z,9.20
2019-04-11T06:36:30.041Z,9.10
2019-04-11T06:37:29.793Z,8.90
2019-04-11T06:38:30.069Z,9.00
2019-04-11T06:39:29.463Z,9.70
2019-04-11T06:40:29.255Z,9.00
2019-04-11T06:41:28.967Z,9.00
2019-04-11T06:42:30.200Z,8.80
2019-04-11T06:43:28.929Z,9.30
2019-04-11T06:44:29.979Z,9.20
2019-04-11T06:45:29.410Z,9.50
2019-04-11T06:46:29.218Z,9.00
2019-04-11T06:47:29.236Z,9.60
2019-04-11T06:48:29.696Z,9.20
2019-04-11T06:49:28.936Z,9.00
2019-04-11T06:50:28.851Z,9.20
2019-04-11T06:51:28.861Z,9.20
2019-04-11T06:52:28.827Z,9.30
2019-04-11T06:53:30.083Z,9.30
2019-04-11T06:54:28.806Z,9.60
2019-04-11T06:55:29.020Z,9.30
2019-04-11T06:56:29.338Z,9.10
2019-04-11T06:57:29.906Z,9.20
2019-04-11T06:58:29.735Z,10.10
2019-04-11T06:59:28.758Z,9.80
2019-04-11T07:00:29.311Z,9.60
2019-04-11T07:01:29.955Z,9.60
2019-04-11T07:02:29.896Z,9.40
2019-04-11T07:03:30.477Z,9.00
2019-04-11T07:04:29.478Z,9.10
2019-04-11T07:05:28.992Z,9.30
2019-04-11T07:06:29.369Z,9.60
2019-04-11T07:07:30.313Z,9.50
2019-04-11T07:08:28.653Z,9.20
2019-04-11T07:09:28.797Z,9.00
2019-04-11T07:10:28.734Z,8.90
2019-04-11T07:11:28.661Z,9.30
2019-04-11T07:12:28.723Z,8.70
2019-04-11T07:13:28.600Z,9.10
2019-04-11T07:14:29.137Z,9.10
2019-04-11T07:15:29.383Z,9.00
2019-04-11T07:16:29.446Z,9.10
2019-04-11T07:17:29.671Z,9.80
2019-04-11T07:18:29.105Z,8.90
2019-04-11T07:19:28.735Z,9.20
2019-04-11T07:20:29.334Z,9.00
2019-04-11T07:21:28.521Z,8.60
2019-04-11T07:22:28.521Z,8.60
2019-04-11T07:23:28.601Z,8.90
2019-04-11T07:24:28.488Z,9.10
2019-04-11T07:25:28.959Z,8.80
2019-04-11T07:26:29.445Z,9.00
2019-04-11T07:27:28.440Z,8.60
2019-04-11T07:28:29.501Z,8.10
2019-04-11T07:29:29.253Z,9.30
2019-04-11T07:30:28.929Z,8.30
2019-04-11T07:31:29.868Z,8.60
2019-04-11T07:32:29.755Z,8.50
2019-04-11T07:33:28.882Z,8.90
2019-04-11T07:34:32.733Z,8.50
2019-04-11T07:35:29.417Z,8.90
2019-04-11T07:36:29.578Z,8.60
2019-04-11T07:37:28.369Z,8.40
2019-04-11T07:38:29.407Z,7.60
2019-04-11T07:39:28.928Z,8.30
2019-04-11T07:40:29.457Z,8.60
2019-04-11T07:41:29.679Z,8.00
2019-04-11T07:42:28.294Z,7.90
2019-04-11T07:43:29.217Z,8.70
2019-04-11T07:44:30.119Z,7.70
2019-04-11T07:45:28.255Z,8.00
2019-04-11T07:46:28.950Z,8.50
2019-04-11T07:47:29.425Z,8.10
2019-04-11T07:48:29.227Z,8.00
2019-04-11T07:49:28.599Z,8.00
2019-04-11T07:50:28.204Z,7.90
2019-04-11T07:51:28.225Z,8.20
2019-04-11T07:52:30.527Z,8.20
2019-04-11T07:53:28.553Z,8.00
2019-04-11T07:54:28.225Z,7.70
2019-04-11T07:55:28.153Z,8.40
2019-04-11T07:56:28.127Z,7.70
2019-04-11T07:57:28.432Z,7.50
2019-04-11T07:58:28.615Z,7.40
2019-04-11T07:59:28.095Z,8.10
2019-04-11T08:00:39.914Z,7.50
2019-04-11T08:01:29.425Z,7.40
2019-04-11T08:02:28.989Z,7.20
2019-04-11T08:03:28.075Z,7.30
2019-04-11T08:04:28.048Z,6.70
2019-04-11T08:05:28.093Z,7.10
2019-04-11T08:06:28.825Z,7.10
2019-04-11T08:07:28.233Z,6.50
2019-04-11T08:08:27.999Z,6.40
2019-04-11T08:09:28.977Z,6.20
2019-04-11T08:10:27.968Z,6.50
2019-04-11T08:11:27.957Z,6.10
2019-04-11T08:12:27.943Z,5.90
2019-04-11T08:13:28.348Z,6.40
2019-04-11T08:14:28.688Z,6.80
2019-04-11T08:15:27.918Z,6.60
2019-04-11T08:16:28.933Z,6.50
2019-04-11T08:17:35.547Z,6.50
2019-04-11T08:18:28.878Z,6.30
2019-04-11T08:19:28.821Z,6.00
2019-04-11T08:20:29.022Z,6.30
2019-04-11T08:21:28.296Z,7.00
2019-04-11T08:22:27.840Z,6.50
2019-04-11T08:23:27.833Z,6.70
2019-04-11T08:24:28.895Z,6.40
2019-04-11T08:25:27.816Z,6.50
2019-04-11T08:26:28.301Z,7.40
2019-04-11T08:27:27.789Z,6.30
2019-04-11T08:28:28.868Z,6.10
2019-04-11T08:29:28.628Z,6.40
2019-04-11T08:30:27.781Z,6.90
2019-04-11T08:31:28.777Z,6.10
2019-04-11T08:32:27.731Z,6.00
2019-04-11T08:33:28.783Z,6.40
2019-04-11T08:34:27.714Z,6.10
2019-04-11T08:35:28.373Z,6.20
2019-04-11T08:36:27.685Z,6.40
2019-04-11T08:37:27.697Z,6.00
2019-04-11T08:38:28.682Z,6.00
2019-04-11T08:39:27.656Z,6.10
2019-04-11T08:40:28.105Z,6.30
2019-04-11T08:41:27.628Z,6.10
2019-04-11T08:42:27.626Z,6.20
2019-04-11T08:43:28.796Z,6.50
2019-04-11T08:44:28.044Z,5.90
2019-04-11T08:45:27.599Z,6.20
2019-04-11T08:46:28.873Z,6.00
2019-04-11T08:47:40.204Z,5.80
2019-04-11T08:48:28.847Z,6.40
2019-04-11T08:49:30.158Z,6.10
2019-04-11T08:50:28.275Z,6.00
2019-04-11T08:51:27.590Z,5.30
2019-04-11T08:52:27.918Z,6.10
2019-04-11T08:53:27.497Z,5.90
2019-04-11T08:54:27.486Z,5.30
2019-04-11T08:55:27.474Z,5.90
2019-04-11T08:56:28.449Z,5.90
2019-04-11T08:57:27.576Z,6.10
2019-04-11T08:58:27.439Z,6.00
2019-04-11T08:59:27.434Z,5.60
2019-04-11T09:00:28.249Z,5.50
2019-04-11T09:01:27.725Z,6.20
2019-04-11T09:02:27.394Z,6.50
2019-04-11T09:03:27.378Z,6.20
2019-04-11T09:04:27.422Z,5.70
2019-04-11T09:05:27.389Z,6.10
2019-04-11T09:06:28.412Z,5.40
2019-04-11T09:07:27.626Z,5.70
2019-04-11T09:08:27.324Z,5.50
2019-04-11T09:09:27.472Z,6.10
2019-04-11T09:10:28.239Z,5.90
2019-04-11T09:11:27.297Z,5.60
2019-04-11T09:12:27.294Z,5.70
2019-04-11T09:13:27.296Z,5.50
2019-04-11T09:14:28.404Z,5.40
2019-04-11T09:15:27.247Z,6.10
2019-04-11T09:16:27.755Z,5.70
2019-04-11T09:17:28.220Z,6.40
2019-04-11T09:18:28.111Z,5.80
2019-04-11T09:19:27.343Z,5.60
2019-04-11T09:20:27.638Z,5.80
2019-04-11T09:21:27.179Z,5.90
2019-04-11T09:22:27.183Z,5.60
2019-04-11T09:23:27.925Z,6.50
2019-04-11T09:24:27.356Z,5.20
2019-04-11T09:25:27.433Z,6.20
2019-04-11T09:26:27.723Z,5.90
2019-04-11T09:27:27.137Z,5.80
2019-04-11T09:28:27.193Z,5.90
2019-04-11T09:29:28.273Z,5.90
2019-04-11T09:30:27.079Z,6.00
2019-04-11T09:31:27.563Z,6.10
2019-04-11T09:32:27.061Z,6.00
2019-04-11T09:33:27.059Z,5.90
2019-04-11T09:34:28.029Z,6.10
2019-04-11T09:35:27.042Z,5.70
2019-04-11T09:36:28.971Z,5.20
2019-04-11T09:37:27.449Z,6.50
2019-04-11T09:38:27.024Z,6.20
2019-04-11T09:39:27.040Z,6.30
2019-04-11T09:40:28.051Z,6.20
2019-04-11T09:41:28.152Z,6.10
2019-04-11T09:42:28.292Z,6.30
2019-04-11T09:43:28.102Z,6.30
2019-04-11T09:44:26.940Z,5.90
2019-04-11T09:45:27.745Z,5.80
2019-04-11T09:46:27.221Z,6.00
2019-04-11T09:47:26.893Z,6.10
2019-04-11T09:48:26.901Z,6.20
2019-04-11T09:49:27.127Z,6.20
2019-04-11T09:50:26.860Z,6.20
2019-04-11T09:51:29.211Z,6.00
2019-04-11T09:52:27.000Z,6.10
2019-04-11T09:53:28.184Z,5.90
2019-04-11T09:54:28.159Z,6.10
2019-04-11T09:55:26.804Z,6.00
2019-04-11T09:56:27.106Z,6.30
2019-04-11T09:57:26.896Z,6.20
2019-04-11T09:58:27.500Z,6.10
2019-04-11T09:59:27.159Z,6.00
2019-04-11T10:00:26.993Z,6.30
2019-04-11T10:01:26.814Z,6.60
2019-04-11T10:02:27.507Z,6.20
2019-04-11T10:03:27.839Z,6.50
2019-04-11T10:04:27.632Z,6.20
2019-04-11T10:05:26.688Z,6.00
2019-04-11T10:06:26.681Z,6.40
2019-04-11T10:07:27.931Z,6.40
2019-04-11T10:08:26.701Z,6.40
2019-04-11T10:09:26.663Z,6.50
2019-04-11T10:10:26.805Z,6.30
2019-04-11T10:11:26.638Z,6.00
2019-04-11T10:12:27.652Z,6.40
2019-04-11T10:13:26.953Z,6.40
2019-04-11T10:14:26.616Z,6.20
2019-04-11T10:15:27.198Z,6.40
2019-04-11T10:16:26.590Z,6.30
2019-04-11T10:17:26.984Z,6.20
2019-04-11T10:18:30.981Z,5.70
2019-04-11T10:19:27.784Z,5.90
2019-04-11T10:20:26.847Z,6.30
2019-04-11T10:21:26.517Z,6.20
2019-04-11T10:22:27.073Z,6.40
2019-04-11T10:23:27.055Z,6.50
2019-04-11T10:24:26.507Z,6.10
2019-04-11T10:25:28.279Z,6.10
2019-04-11T10:26:27.714Z,6.10
2019-04-11T10:27:26.744Z,5.60
2019-04-11T10:28:27.289Z,5.90
2019-04-11T10:29:28.990Z,6.00
2019-04-11T10:30:26.436Z,6.00
2019-04-11T10:31:26.410Z,6.20
2019-04-11T10:32:27.444Z,5.60
2019-04-11T10:33:26.391Z,5.30
2019-04-11T10:34:26.417Z,6.00
2019-04-11T10:35:26.382Z,5.90
2019-04-11T10:36:27.378Z,5.80
2019-04-11T10:37:27.524Z,5.80
2019-04-11T10:38:26.594Z,5.80
2019-04-11T10:39:27.138Z,5.80
2019-04-11T10:40:26.330Z,5.80
2019-04-11T10:41:26.311Z,5.90
2019-04-11T10:42:26.661Z,5.50
2019-04-11T10:43:26.679Z,5.70
2019-04-11T10:44:26.293Z,5.40
2019-04-11T10:45:26.832Z,5.60
2019-04-11T10:46:27.119Z,5.80
2019-04-11T10:47:27.045Z,5.50
2019-04-11T10:48:34.530Z,5.50
2019-04-11T10:49:28.350Z,5.60
2019-04-11T10:50:26.239Z,5.90
2019-04-11T10:51:26.451Z,5.90
2019-04-11T10:52:26.664Z,5.10
2019-04-11T10:53:26.972Z,5.70
2019-04-11T10:54:26.161Z,5.20
2019-04-11T10:55:27.330Z,5.20
2019-04-11T10:56:26.476Z,5.40
2019-04-11T10:57:26.118Z,4.90
2019-04-11T10:58:26.848Z,5.70
2019-04-11T10:59:27.810Z,5.30
2019-04-11T11:00:27.197Z,5.70
2019-04-11T11:01:26.708Z,5.70
2019-04-11T11:02:26.136Z,5.50
2019-04-11T11:03:27.308Z,5.40
2019-04-11T11:04:26.043Z,5.90
2019-04-11T11:05:26.279Z,5.30
2019-04-11T11:06:26.045Z,5.10
2019-04-11T11:07:26.729Z,5.50
2019-04-11T11:08:26.031Z,5.30
2019-04-11T11:09:26.275Z,5.30
2019-04-11T11:10:25.978Z,5.10
2019-04-11T11:11:26.168Z,5.20
2019-04-11T11:12:25.970Z,5.40
2019-04-11T11:13:25.957Z,5.00
2019-04-11T11:14:26.971Z,5.00
2019-04-11T11:15:25.953Z,5.60
2019-04-11T11:16:27.933Z,5.50
2019-04-11T11:17:50.192Z,5.40
2019-04-11T11:18:48.103Z,5.40
2019-04-11T11:19:43.933Z,5.40
2019-04-11T11:20:33.642Z,5.00
2019-04-11T11:21:30.608Z,4.50
2019-04-11T11:22:27.389Z,4.90
2019-04-11T11:23:26.882Z,5.00
2019-04-11T11:24:26.079Z,5.00
2019-04-11T11:25:26.733Z,5.30
2019-04-11T11:26:26.538Z,5.40
2019-04-11T11:27:26.559Z,5.10
2019-04-11T11:28:25.967Z,4.80
2019-04-11T11:29:26.655Z,4.80
2019-04-11T11:30:25.782Z,5.30
2019-04-11T11:31:25.768Z,5.30
2019-04-11T11:32:25.752Z,5.70
2019-04-11T11:33:26.594Z,5.50
2019-04-11T11:34:25.744Z,5.20
2019-04-11T11:35:29.558Z,4.80
2019-04-11T11:36:26.688Z,5.40
2019-04-11T11:37:25.875Z,5.20
2019-04-11T11:38:26.053Z,5.30
2019-04-11T11:39:26.812Z,5.30
2019-04-11T11:40:25.958Z,5.10
2019-04-11T11:41:25.657Z,5.30
2019-04-11T11:42:26.158Z,5.20
2019-04-11T11:43:25.639Z,5.70
2019-04-11T11:44:25.642Z,5.40
2019-04-11T11:45:25.694Z,5.10
2019-04-11T11:46:28.100Z,5.60
2019-04-11T11:47:25.907Z,5.80
2019-04-11T11:48:26.375Z,5.20
2019-04-11T11:49:41.545Z,5.50
2019-04-11T11:50:26.832Z,5.70
2019-04-11T11:51:29.215Z,5.20
2019-04-11T11:52:25.521Z,5.00
2019-04-11T11:53:27.320Z,5.20
2019-04-11T11:54:25.501Z,5.60
2019-04-11T11:55:25.478Z,5.50
2019-04-11T11:56:26.258Z,5.40
2019-04-11T11:57:26.590Z,5.70
2019-04-11T11:58:25.768Z,5.60
2019-04-11T11:59:25.448Z,5.60
2019-04-11T12:00:25.437Z,5.60
2019-04-11T12:01:25.448Z,5.80
2019-04-11T12:02:26.374Z,5.70
2019-04-11T12:03:29.154Z,5.70
2019-04-11T12:04:26.177Z,5.90
2019-04-11T12:05:26.801Z,5.70
2019-04-11T12:06:25.369Z,5.90
2019-04-11T12:07:25.348Z,5.50
2019-04-11T12:08:25.357Z,5.70
2019-04-11T12:09:26.572Z,5.50
2019-04-11T12:10:26.114Z,5.70
2019-04-11T12:11:26.283Z,5.90
2019-04-11T12:12:25.294Z,5.60
2019-04-11T12:13:26.240Z,5.80
2019-04-11T12:14:25.280Z,6.00
2019-04-11T12:15:26.857Z,6.20
2019-04-11T12:16:25.908Z,5.80
2019-04-11T12:17:25.329Z,6.20
2019-04-11T12:18:26.663Z,6.60
2019-04-11T12:19:25.223Z,6.40
2019-04-11T12:20:25.215Z,6.90
2019-04-11T12:21:28.040Z,6.80
2019-04-11T12:22:25.313Z,7.00
2019-04-11T12:23:25.977Z,6.20
2019-04-11T12:24:25.330Z,6.30
2019-04-11T12:25:25.215Z,6.70
2019-04-11T12:26:27.939Z,6.80
2019-04-11T12:27:26.797Z,6.30
2019-04-11T12:28:25.667Z,6.60
2019-04-11T12:29:25.142Z,6.70
2019-04-11T12:30:30.538Z,6.80
2019-04-11T12:31:26.081Z,6.60
2019-04-11T12:32:25.294Z,6.80
2019-04-11T12:33:25.671Z,7.30
2019-04-11T12:34:26.094Z,6.70
2019-04-11T12:35:26.281Z,7.40
2019-04-11T12:36:26.371Z,6.20
2019-04-11T12:37:25.316Z,7.00
2019-04-11T12:38:25.244Z,7.40
2019-04-11T12:39:25.443Z,6.50
2019-04-11T12:40:24.983Z,6.70
2019-04-11T12:41:24.974Z,6.50
2019-04-11T12:42:24.976Z,6.30
2019-04-11T12:43:24.949Z,7.40
2019-04-11T12:44:26.746Z,7.00
2019-04-11T12:45:24.929Z,6.80
2019-04-11T12:46:29.805Z,7.00
2019-04-11T12:47:25.915Z,6.50
2019-04-11T12:48:24.931Z,6.30
2019-04-11T12:49:24.900Z,6.50
2019-04-11T12:50:25.008Z,6.50
2019-04-11T12:51:24.865Z,6.60
2019-04-11T12:52:24.860Z,6.60
2019-04-11T12:53:24.846Z,7.30
2019-04-11T12:54:24.905Z,6.30
2019-04-11T12:55:24.852Z,6.70
2019-04-11T12:56:24.835Z,6.90
2019-04-11T12:57:24.800Z,6.50
2019-04-11T12:58:24.797Z,6.30
2019-04-11T12:59:24.780Z,6.80
2019-04-11T13:00:24.831Z,6.20
2019-04-11T13:01:24.769Z,6.50
2019-04-11T13:02:24.745Z,6.40
2019-04-11T13:03:24.742Z,6.80
2019-04-11T13:04:24.760Z,5.90
2019-04-11T13:05:24.757Z,6.60
2019-04-11T13:06:34.930Z,6.70
2019-04-11T13:07:25.691Z,6.50
2019-04-11T13:08:24.688Z,6.70
2019-04-11T13:09:24.681Z,6.40